Time;durP1;ratioP1;P1;durP2;ratioP2;P2;SDS_P1;SDS_P2;PMS_P1;PMS_P2;Temp;Humidity;BMP_temperature;BMP_pressure;BME280_temperature;BME280_humidity;BME280_pressure;Samples;Min_cycle;Max_cycle;Signal;HPM_P1;HPM_P2
2022/04/10 00:01:42;;;;;;;7.75;2.88;;;;;;;;;;4914253;29;20056;-68
2022/04/10 00:04:12;;;;;;;8.50;3.25;;;;;;;;;;4882909;29;20524;-68
2022/04/10 00:06:43;;;;;;;5.70;2.63;;;;;;;;;;4904667;29;20650;-68
2022/04/10 00:09:14;;;;;;;8.95;2.88;;;;;;;;;;4867813;29;20063;-69
2022/04/10 00:11:44;;;;;;;6.85;2.97;;;;;;;;;;4879538;29;20060;-67
2022/04/10 00:14:15;;;;;;;7.57;2.95;;;;;;;;;;4895298;29;20064;-68
2022/04/10 00:16:46;;;;;;;8.25;3.40;;;;;;;;;;4879394;29;20060;-68
2022/04/10 00:19:16;;;;;;;6.82;2.63;;;;;;;;;;4913578;29;20161;-68
2022/04/10 00:21:47;;;;;;;11.45;3.35;;;;;;;;;;4913804;29;20060;-67
2022/04/10 00:24:18;;;;;;;5.53;3.10;;;;;;;;;;4904510;29;20052;-68
2022/04/10 00:26:49;;;;;;;8.05;3.45;;;;;;;;;;4903706;29;20057;-67
2022/04/10 00:29:20;;;;;;;8.85;3.53;;;;;;;;;;4885652;29;20064;-68
2022/04/10 00:31:51;;;;;;;10.25;4.13;;;;;;;;;;4913203;29;20052;-67
2022/04/10 00:34:21;;;;;;;7.95;3.13;;;;;;;;;;4914186;29;20059;-68
2022/04/10 00:36:52;;;;;;;6.75;3.47;;;;;;;;;;4894313;29;20048;-68
2022/04/10 00:39:24;;;;;;;5.35;3.03;;;;;;;;;;4929901;29;20052;-69
2022/04/10 00:41:56;;;;;;;11.45;3.30;;;;;;;;;;4951265;28;20427;-67
2022/04/10 00:44:27;;;;;;;10.95;3.50;;;;;;;;;;4921497;28;20068;-67
2022/04/10 00:46:58;;;;;;;9.85;3.35;;;;;;;;;;4894709;29;20056;-70
2022/04/10 00:49:29;;;;;;;6.93;3.40;;;;;;;;;;4894618;29;20524;-68
2022/04/10 00:52:01;;;;;;;10.38;3.65;;;;;;;;;;4932162;29;20062;-69
2022/04/10 00:54:33;;;;;;;10.48;3.72;;;;;;;;;;4912335;29;20047;-68
2022/04/10 00:57:04;;;;;;;9.60;3.63;;;;;;;;;;4888545;29;20049;-69
2022/04/10 00:59:35;;;;;;;8.10;3.60;;;;;;;;;;4841638;29;20065;-67
2022/04/10 01:02:06;;;;;;;10.13;3.63;;;;;;;;;;4867475;29;20080;-68
2022/04/10 01:04:41;;;;;;;6.57;3.20;;;;;;;;;;4875953;29;20056;-67
2022/04/10 01:07:13;;;;;;;;;;;;;;;;;;4876120;29;20068;-67
2022/04/10 01:09:46;;;;;;;10.32;3.38;;;;;;;;;;4882847;29;19924;-68
2022/04/10 01:12:17;;;;;;;10.35;3.78;;;;;;;;;;4890943;29;20089;-68
2022/04/10 01:14:52;;;;;;;8.30;3.67;;;;;;;;;;4863593;29;20064;-68
2022/04/10 01:17:33;;;;;;;8.80;4.25;;;;;;;;;;4856716;29;20069;-69
2022/04/10 01:20:04;;;;;;;8.13;4.35;;;;;;;;;;4843555;29;20575;-68
2022/04/10 01:22:41;;;;;;;8.95;4.30;;;;;;;;;;4856392;29;20052;-68
2022/04/10 01:25:13;;;;;;;9.48;4.18;;;;;;;;;;4862307;29;20509;-68
2022/04/10 01:27:45;;;;;;;11.20;4.13;;;;;;;;;;4837983;29;20053;-69
2022/04/10 01:30:19;;;;;;;11.00;4.13;;;;;;;;;;4838173;29;20057;-69
2022/04/10 01:32:50;;;;;;;9.02;4.07;;;;;;;;;;4838056;29;20101;-69
2022/04/10 01:35:25;;;;;;;7.78;3.83;;;;;;;;;;4819820;29;20065;-69
2022/04/10 01:37:58;;;;;;;8.75;3.95;;;;;;;;;;4834679;29;20070;-68
2022/04/10 01:40:34;;;;;;;11.13;4.20;;;;;;;;;;4856431;29;20053;-69
2022/04/10 01:43:06;;;;;;;7.95;4.35;;;;;;;;;;4822866;29;20058;-69
2022/04/10 01:45:38;;;;;;;12.38;4.28;;;;;;;;;;4819920;29;20066;-68
2022/04/10 01:48:08;;;;;;;10.40;4.10;;;;;;;;;;4805025;29;20059;-69
2022/04/10 01:50:39;;;;;;;10.50;3.95;;;;;;;;;;4801897;29;20504;-69
2022/04/10 01:53:09;;;;;;;9.70;4.32;;;;;;;;;;4801819;29;20063;-68
2022/04/10 01:55:40;;;;;;;7.45;3.88;;;;;;;;;;4801758;29;20059;-69
2022/04/10 01:58:11;;;;;;;9.88;4.07;;;;;;;;;;4794845;29;20066;-67
2022/04/10 02:00:42;;;;;;;9.68;4.10;;;;;;;;;;4778247;29;20052;-67
2022/04/10 02:03:12;;;;;;;10.43;4.18;;;;;;;;;;4809338;29;20058;-68
2022/04/10 02:05:43;;;;;;;11.68;4.25;;;;;;;;;;4790493;29;20066;-68
2022/04/10 02:08:15;;;;;;;10.52;4.32;;;;;;;;;;4786994;29;20055;-69
2022/04/10 02:10:46;;;;;;;8.48;4.25;;;;;;;;;;4804869;29;20054;-68
2022/04/10 02:13:19;;;;;;;9.82;4.47;;;;;;;;;;4804612;29;20058;-68
2022/04/10 02:15:50;;;;;;;;;;;;;;;;;;4775565;29;20085;-67
2022/04/10 02:18:20;;;;;;;9.25;3.83;;;;;;;;;;4818397;29;20313;-68
2022/04/10 02:20:51;;;;;;;8.43;3.75;;;;;;;;;;4832127;29;20065;-68
2022/04/10 02:23:22;;;;;;;8.63;4.55;;;;;;;;;;4832474;29;20535;-68
2022/04/10 02:25:54;;;;;;;15.40;4.93;;;;;;;;;;4860871;29;20084;-67
2022/04/10 02:28:24;;;;;;;11.52;4.72;;;;;;;;;;4859671;29;20057;-67
2022/04/10 02:30:55;;;;;;;11.25;4.50;;;;;;;;;;4859381;29;20057;-68
2022/04/10 02:33:27;;;;;;;10.82;4.45;;;;;;;;;;4874818;29;20060;-68
2022/04/10 02:35:58;;;;;;;10.45;4.88;;;;;;;;;;4860046;29;20060;-68
2022/04/10 02:38:29;;;;;;;18.33;4.82;;;;;;;;;;4867892;29;20058;-68
2022/04/10 02:40:59;;;;;;;9.15;4.75;;;;;;;;;;4869093;29;20053;-67
2022/04/10 02:43:30;;;;;;;12.20;4.65;;;;;;;;;;4877985;29;20053;-68
2022/04/10 02:46:05;;;;;;;10.18;4.22;;;;;;;;;;4834151;29;20049;-66
2022/04/10 02:48:41;;;;;;;10.02;5.10;;;;;;;;;;4859237;29;20050;-67
2022/04/10 02:51:16;;;;;;;10.98;4.13;;;;;;;;;;4825989;29;20054;-67
2022/04/10 02:53:50;;;;;;;7.32;3.70;;;;;;;;;;4841185;29;20062;-68
2022/04/10 02:56:21;;;;;;;8.18;4.22;;;;;;;;;;4825478;29;20057;-67
2022/04/10 02:58:52;;;;;;;7.60;3.90;;;;;;;;;;4841183;29;20049;-67
2022/04/10 03:01:23;;;;;;;8.10;4.40;;;;;;;;;;4840751;29;20446;-67
2022/04/10 03:03:54;;;;;;;7.72;4.18;;;;;;;;;;4840249;29;20058;-69
2022/04/10 03:06:26;;;;;;;8.38;4.05;;;;;;;;;;4859228;29;20048;-67
2022/04/10 03:08:57;;;;;;;8.50;4.35;;;;;;;;;;4847108;29;20073;-67
2022/04/10 03:11:27;;;;;;;9.77;4.20;;;;;;;;;;4848488;29;20072;-67
2022/04/10 03:13:59;;;;;;;8.02;3.92;;;;;;;;;;4877442;29;20536;-67
2022/04/10 03:16:31;;;;;;;10.63;3.75;;;;;;;;;;4889458;29;20055;-68
2022/04/10 03:19:01;;;;;;;7.45;4.38;;;;;;;;;;4866638;29;20056;-67
2022/04/10 03:21:32;;;;;;;8.30;4.18;;;;;;;;;;4877049;29;20049;-67
2022/04/10 03:24:03;;;;;;;9.48;4.40;;;;;;;;;;4846078;29;20173;-67
2022/04/10 03:26:35;;;;;;;7.35;4.03;;;;;;;;;;4855436;29;20800;-67
2022/04/10 03:29:05;;;;;;;9.88;4.45;;;;;;;;;;4866620;29;20203;-68
2022/04/10 03:31:36;;;;;;;9.60;4.35;;;;;;;;;;4895828;29;20064;-68
2022/04/10 03:34:07;;;;;;;8.40;4.43;;;;;;;;;;4869815;29;20761;-67
2022/04/10 03:36:37;;;;;;;11.10;4.00;;;;;;;;;;4895666;29;20173;-67
2022/04/10 03:39:09;;;;;;;9.82;4.55;;;;;;;;;;4866582;29;20524;-67
2022/04/10 03:41:40;;;;;;;9.13;4.53;;;;;;;;;;4848423;29;20082;-67
2022/04/10 03:44:11;;;;;;;18.33;4.55;;;;;;;;;;4838703;29;20046;-67
2022/04/10 03:46:42;;;;;;;11.70;4.47;;;;;;;;;;4873298;29;20080;-67
2022/04/10 03:49:13;;;;;;;6.95;3.70;;;;;;;;;;4857897;29;20498;-71
2022/04/10 03:51:44;;;;;;;7.75;3.67;;;;;;;;;;4848758;29;20068;-68
2022/04/10 03:54:14;;;;;;;7.43;3.80;;;;;;;;;;4857799;29;20113;-67
2022/04/10 03:56:46;;;;;;;6.75;3.97;;;;;;;;;;4867014;29;20076;-67
2022/04/10 03:59:17;;;;;;;7.68;3.78;;;;;;;;;;4848590;29;20084;-68
2022/04/10 04:01:47;;;;;;;8.70;4.10;;;;;;;;;;4869548;29;20089;-67
2022/04/10 04:04:18;;;;;;;8.85;4.50;;;;;;;;;;4839517;29;20144;-68
2022/04/10 04:06:49;;;;;;;10.18;3.92;;;;;;;;;;4833698;29;20501;-68
2022/04/10 04:09:21;;;;;;;8.77;4.32;;;;;;;;;;4838181;29;20451;-68
2022/04/10 04:11:52;;;;;;;7.65;3.75;;;;;;;;;;4839358;29;20058;-68
2022/04/10 04:14:23;;;;;;;9.25;3.67;;;;;;;;;;4867266;29;20165;-68
2022/04/10 04:16:53;;;;;;;9.70;3.78;;;;;;;;;;4866857;29;20065;-67
2022/04/10 04:19:24;;;;;;;6.63;3.83;;;;;;;;;;4872534;29;20103;-68
2022/04/10 04:21:54;;;;;;;9.23;3.97;;;;;;;;;;4835504;29;20498;-68
2022/04/10 04:24:26;;;;;;;9.80;4.38;;;;;;;;;;4866075;29;20065;-69
2022/04/10 04:26:57;;;;;;;10.32;3.95;;;;;;;;;;4857154;29;20060;-68
2022/04/10 04:29:29;;;;;;;6.78;4.10;;;;;;;;;;4835395;29;20058;-68
2022/04/10 04:32:00;;;;;;;8.00;4.50;;;;;;;;;;4829343;29;20050;-68
2022/04/10 04:34:31;;;;;;;8.05;3.80;;;;;;;;;;4857098;29;20046;-67
2022/04/10 04:37:02;;;;;;;10.75;3.63;;;;;;;;;;4857286;29;20061;-68
2022/04/10 04:39:33;;;;;;;7.78;3.85;;;;;;;;;;4847644;29;20058;-68
2022/04/10 04:42:04;;;;;;;7.78;3.72;;;;;;;;;;4838306;29;20050;-69
2022/04/10 04:44:35;;;;;;;12.60;3.88;;;;;;;;;;4853521;29;20060;-68
2022/04/10 04:47:06;;;;;;;7.63;4.10;;;;;;;;;;4829991;29;20053;-69
2022/04/10 04:49:37;;;;;;;8.85;4.00;;;;;;;;;;4828783;29;20059;-67
2022/04/10 04:52:08;;;;;;;9.15;4.05;;;;;;;;;;4810949;29;20150;-70
2022/04/10 04:54:39;;;;;;;6.13;3.50;;;;;;;;;;4838469;29;20572;-67
2022/04/10 04:57:10;;;;;;;7.55;3.72;;;;;;;;;;4848597;29;20446;-67
2022/04/10 04:59:43;;;;;;;10.63;4.30;;;;;;;;;;4846718;29;20062;-67
2022/04/10 05:02:14;;;;;;;11.45;4.32;;;;;;;;;;4836732;29;20423;-67
2022/04/10 05:04:45;;;;;;;15.55;4.88;;;;;;;;;;4856674;29;20512;-69
2022/04/10 05:07:16;;;;;;;6.72;3.47;;;;;;;;;;4827709;29;20059;-67
2022/04/10 05:09:46;;;;;;;9.90;4.47;;;;;;;;;;4800558;29;20058;-67
2022/04/10 05:12:17;;;;;;;13.30;4.55;;;;;;;;;;4803817;29;20427;-68
2022/04/10 05:14:49;;;;;;;;;;;;;;;;;;4838349;29;20075;-68
2022/04/10 05:17:22;;;;;;;9.95;3.83;;;;;;;;;;4853168;29;19924;-71
2022/04/10 05:19:53;;;;;;;9.02;3.80;;;;;;;;;;4838187;29;20534;-70
2022/04/10 05:22:24;;;;;;;7.25;3.67;;;;;;;;;;4846551;29;20073;-68
2022/04/10 05:25:06;;;;;;;12.48;4.50;;;;;;;;;;4856633;29;20053;-68
2022/04/10 05:27:38;;;;;;;10.85;4.97;;;;;;;;;;4876726;29;20056;-68
2022/04/10 05:30:10;;;;;;;11.73;4.43;;;;;;;;;;4912483;29;20533;-67
2022/04/10 05:32:44;;;;;;;;;;;;;;;;;;4881694;29;20058;-69
2022/04/10 05:35:16;;;;;;;9.63;4.05;;;;;;;;;;4838462;29;19947;-68
2022/04/10 05:37:47;;;;;;;7.65;4.38;;;;;;;;;;4862924;29;20057;-68
2022/04/10 05:40:18;;;;;;;11.07;4.15;;;;;;;;;;4874777;29;20180;-67
2022/04/10 05:42:49;;;;;;;7.38;4.13;;;;;;;;;;4893497;29;20053;-70
2022/04/10 05:45:21;;;;;;;10.18;4.10;;;;;;;;;;4893552;29;20101;-68
2022/04/10 05:47:55;;;;;;;12.23;4.80;;;;;;;;;;4874980;29;20053;-69
2022/04/10 05:50:31;;;;;;;9.15;4.80;;;;;;;;;;4875095;29;20060;-68
2022/04/10 05:53:03;;;;;;;11.23;4.60;;;;;;;;;;4892751;29;20059;-68
2022/04/10 05:55:38;;;;;;;11.48;4.82;;;;;;;;;;4950279;29;20055;-69
2022/04/10 05:58:14;;;;;;;11.63;4.70;;;;;;;;;;4950377;29;20088;-68
2022/04/10 06:00:45;;;;;;;10.57;5.22;;;;;;;;;;4950532;29;20476;-68
2022/04/10 06:03:20;;;;;;;10.35;5.20;;;;;;;;;;4888185;29;20056;-67
2022/04/10 06:05:54;;;;;;;12.40;4.93;;;;;;;;;;4895750;29;20054;-67
2022/04/10 06:08:31;;;;;;;9.13;4.72;;;;;;;;;;4883127;29;20048;-68
2022/04/10 06:11:03;;;;;;;12.73;5.20;;;;;;;;;;4906278;29;20580;-67
2022/04/10 06:13:34;;;;;;;13.18;4.82;;;;;;;;;;4930631;29;20429;-68
2022/04/10 06:16:09;;;;;;;12.23;4.97;;;;;;;;;;4901604;29;20056;-67
2022/04/10 06:18:43;;;;;;;11.18;5.47;;;;;;;;;;4903533;29;20105;-67
2022/04/10 06:21:13;;;;;;;13.20;5.13;;;;;;;;;;4927711;29;20060;-68
2022/04/10 06:23:46;;;;;;;14.73;5.40;;;;;;;;;;4881891;29;20053;-68
2022/04/10 06:26:27;;;;;;;12.23;5.78;;;;;;;;;;4856863;29;20057;-67
2022/04/10 06:28:58;;;;;;;13.55;5.93;;;;;;;;;;4837836;29;20515;-67
2022/04/10 06:31:38;;;;;;;11.27;5.55;;;;;;;;;;4884528;29;20114;-68
2022/04/10 06:34:09;;;;;;;11.50;5.07;;;;;;;;;;4859010;29;20073;-67
2022/04/10 06:36:42;;;;;;;10.70;4.72;;;;;;;;;;4874417;29;20072;-68
2022/04/10 06:39:17;;;;;;;9.40;4.53;;;;;;;;;;4892931;29;20049;-67
2022/04/10 06:41:50;;;;;;;14.00;5.32;;;;;;;;;;4862149;29;20053;-67
2022/04/10 06:44:43;;;;;;;14.20;5.32;;;;;;;;;;4838950;29;20050;-68
2022/04/10 06:47:27;;;;;;;43.38;5.72;;;;;;;;;;4837385;29;20161;-67
2022/04/10 06:50:01;;;;;;;32.72;5.63;;;;;;;;;;4837341;29;20064;-69
2022/04/10 06:52:34;;;;;;;33.97;5.45;;;;;;;;;;4833456;29;20057;-69
2022/04/10 06:55:04;;;;;;;;;;;;;;;;;;4822724;29;20076;-67
2022/04/10 06:57:35;;;;;;;34.90;5.95;;;;;;;;;;4809147;29;19959;-68
2022/04/10 07:00:06;;;;;;;38.08;5.32;;;;;;;;;;4840838;29;20446;-67
2022/04/10 07:02:39;;;;;;;37.15;9.27;;;;;;;;;;4859057;29;20544;-68
2022/04/10 07:05:09;;;;;;;27.52;9.30;;;;;;;;;;4859299;29;20172;-68
2022/04/10 07:07:44;;;;;;;15.93;7.00;;;;;;;;;;4858953;29;20057;-68
2022/04/10 07:10:16;;;;;;;19.38;5.97;;;;;;;;;;4825295;29;20065;-67
2022/04/10 07:12:46;;;;;;;23.95;5.97;;;;;;;;;;4840829;29;20068;-69
2022/04/10 07:15:19;;;;;;;24.33;5.85;;;;;;;;;;4833444;29;20065;-67
2022/04/10 07:17:58;;;;;;;15.50;5.30;;;;;;;;;;4848534;29;20511;-67
2022/04/10 07:20:30;;;;;;;18.00;5.85;;;;;;;;;;4838848;29;20061;-67
2022/04/10 07:25:54;;;;;;;33.38;5.53;;;;;;;;;;4858568;29;20653;-67
2022/04/10 07:28:26;;;;;;;25.98;5.85;;;;;;;;;;4843778;29;20061;-68
2022/04/10 07:31:00;;;;;;;28.95;6.03;;;;;;;;;;4840085;29;20522;-68
2022/04/10 07:33:35;;;;;;;25.90;6.20;;;;;;;;;;4837365;29;20112;-70
2022/04/10 07:36:17;;;;;;;38.35;14.13;;;;;;;;;;4840202;29;20062;-68
2022/04/10 07:38:47;;;;;;;21.65;8.15;;;;;;;;;;4874531;29;20057;-67
2022/04/10 07:41:24;;;;;;;36.35;6.35;;;;;;;;;;4858359;29;20056;-67
2022/04/10 07:43:55;;;;;;;26.65;5.97;;;;;;;;;;4858716;29;20064;-68
2022/04/10 07:49:16;;;;;;;30.30;6.95;;;;;;;;;;4858139;29;20203;-68
2022/04/10 07:51:55;;;;;;;42.15;8.73;;;;;;;;;;4857998;29;20450;-68
2022/04/10 07:54:54;;;;;;;37.30;9.30;;;;;;;;;;4858513;29;20605;-69
2022/04/10 07:57:26;;;;;;;29.55;7.65;;;;;;;;;;4876610;29;20057;-69
2022/04/10 07:59:58;;;;;;;27.02;6.70;;;;;;;;;;4876686;29;20060;-68
2022/04/10 08:02:42;;;;;;;36.92;7.13;;;;;;;;;;4875023;29;20061;-68
2022/04/10 08:05:33;;;;;;;38.03;6.90;;;;;;;;;;4889732;29;20057;-68
2022/04/10 08:08:11;;;;;;;26.65;6.00;;;;;;;;;;4882326;29;20061;-68
2022/04/10 08:10:42;;;;;;;32.75;6.82;;;;;;;;;;4900551;29;20524;-68
2022/04/10 08:13:13;;;;;;;26.75;7.07;;;;;;;;;;4913756;29;20052;-71
2022/04/10 08:15:44;;;;;;;27.95;7.63;;;;;;;;;;4913783;29;20063;-68
2022/04/10 08:18:15;;;;;;;22.65;7.15;;;;;;;;;;4916861;29;20062;-67
2022/04/10 08:20:45;;;;;;;24.77;7.38;;;;;;;;;;4913836;29;20162;-68
2022/04/10 08:23:17;;;;;;;27.48;8.05;;;;;;;;;;4908107;29;20064;-68
2022/04/10 08:25:47;;;;;;;23.67;7.47;;;;;;;;;;4877324;29;20395;-68
2022/04/10 08:28:18;;;;;;;27.17;8.13;;;;;;;;;;4913919;29;20056;-68
2022/04/10 08:30:49;;;;;;;25.55;7.47;;;;;;;;;;4920061;29;20574;-69
2022/04/10 08:33:21;;;;;;;22.85;7.53;;;;;;;;;;4896761;29;20060;-68
2022/04/10 08:35:51;;;;;;;32.25;7.15;;;;;;;;;;4909931;29;20060;-68
2022/04/10 08:38:22;;;;;;;27.38;7.30;;;;;;;;;;4897678;29;20428;-68
2022/04/10 08:41:02;;;;;;;23.67;7.82;;;;;;;;;;4913838;29;20633;-68
2022/04/10 08:43:33;;;;;;;32.70;8.57;;;;;;;;;;4899239;29;20056;-67
2022/04/10 08:46:04;;;;;;;24.48;6.55;;;;;;;;;;4894549;29;20449;-68
2022/04/10 08:48:37;;;;;;;12.60;3.85;;;;;;;;;;4894655;29;20063;-67
2022/04/10 08:51:11;;;;;;;9.07;3.53;;;;;;;;;;4902397;29;20208;-68
2022/04/10 08:53:43;;;;;;;7.82;3.20;;;;;;;;;;4906051;29;20064;-68
2022/04/10 08:56:14;;;;;;;13.75;4.03;;;;;;;;;;4898580;29;20064;-69
2022/04/10 08:58:45;;;;;;;8.30;3.50;;;;;;;;;;4913456;29;20056;-67
2022/04/10 09:01:19;;;;;;;8.57;3.67;;;;;;;;;;4913349;29;20428;-67
2022/04/10 09:03:51;;;;;;;7.60;3.30;;;;;;;;;;4895083;29;20559;-67
2022/04/10 09:06:21;;;;;;;11.23;4.10;;;;;;;;;;4932242;29;20051;-68
2022/04/10 09:08:51;;;;;;;12.80;4.20;;;;;;;;;;4885004;29;20048;-68
2022/04/10 09:11:22;;;;;;;14.43;4.80;;;;;;;;;;4932125;29;20055;-68
2022/04/10 09:13:59;;;;;;;15.35;5.72;;;;;;;;;;4893751;29;20052;-68
2022/04/10 09:16:30;;;;;;;12.52;5.05;;;;;;;;;;4931211;29;20062;-66
2022/04/10 09:19:10;;;;;;;17.17;5.28;;;;;;;;;;4912552;29;20602;-67
2022/04/10 09:21:43;;;;;;;18.48;6.50;;;;;;;;;;4882004;29;20064;-68
2022/04/10 09:24:15;;;;;;;17.63;6.85;;;;;;;;;;4841214;29;20050;-66
2022/04/10 09:26:47;;;;;;;21.88;7.40;;;;;;;;;;4857400;29;20057;-67
2022/04/10 09:29:20;;;;;;;17.15;6.38;;;;;;;;;;4856588;29;20501;-67
2022/04/10 09:31:52;;;;;;;17.77;6.35;;;;;;;;;;4882803;29;20516;-67
2022/04/10 09:34:29;;;;;;;18.98;5.35;;;;;;;;;;4856828;29;20061;-67
2022/04/10 09:37:20;;;;;;;17.98;5.40;;;;;;;;;;4856931;29;20073;-68
2022/04/10 09:39:53;;;;;;;16.90;5.80;;;;;;;;;;4856878;29;20061;-67
2022/04/10 09:42:34;;;;;;;18.00;6.07;;;;;;;;;;4858946;29;20061;-66
2022/04/10 09:45:38;;;;;;;17.45;5.70;;;;;;;;;;4826631;29;20053;-67
2022/04/10 09:48:29;;;;;;;16.08;5.18;;;;;;;;;;4856919;29;20057;-67
2022/04/10 09:51:02;;;;;;;14.85;5.35;;;;;;;;;;4870796;29;20099;-68
2022/04/10 09:53:34;;;;;;;15.45;4.65;;;;;;;;;;4931713;29;20052;-68
2022/04/10 09:56:07;;;;;;;10.10;4.00;;;;;;;;;;4941188;28;20058;-67
2022/04/10 09:58:41;;;;;;;9.38;3.40;;;;;;;;;;4938151;28;20051;-67
2022/04/10 10:01:12;;;;;;;7.40;3.47;;;;;;;;;;4954576;28;20055;-67
2022/04/10 10:03:44;;;;;;;9.70;3.42;;;;;;;;;;4931477;29;20527;-67
2022/04/10 10:06:15;;;;;;;10.82;4.05;;;;;;;;;;4939397;28;20408;-67
2022/04/10 10:08:47;;;;;;;7.90;2.97;;;;;;;;;;4970126;28;20050;-67
2022/04/10 10:11:19;;;;;;;9.95;3.13;;;;;;;;;;4964671;28;20439;-67
2022/04/10 10:13:50;;;;;;;;;;;;;;;;;;4932137;29;20056;-67
2022/04/10 10:16:22;;;;;;;5.97;2.88;;;;;;;;;;4931266;29;19922;-66
2022/04/10 10:18:53;;;;;;;4.18;2.20;;;;;;;;;;4931785;29;20067;-69
2022/04/10 10:21:24;;;;;;;4.63;2.10;;;;;;;;;;4950586;29;20067;-67
2022/04/10 10:23:57;;;;;;;6.53;2.33;;;;;;;;;;4912228;29;20048;-68
2022/04/10 10:26:44;;;;;;;5.78;2.63;;;;;;;;;;4912463;29;20479;-68
2022/04/10 10:29:38;;;;;;;4.65;2.30;;;;;;;;;;4915995;29;20064;-67
2022/04/10 10:32:37;;;;;;;4.43;2.13;;;;;;;;;;4915866;29;20075;-68
2022/04/10 10:35:13;;;;;;;6.72;3.33;;;;;;;;;;4878262;29;20564;-67
2022/04/10 10:37:52;;;;;;;8.52;2.45;;;;;;;;;;4864235;29;20061;-67
2022/04/10 10:40:23;;;;;;;4.22;2.50;;;;;;;;;;4897396;29;20064;-68
2022/04/10 10:42:59;;;;;;;4.63;2.53;;;;;;;;;;4896838;29;20464;-68
2022/04/10 10:45:43;;;;;;;5.60;2.90;;;;;;;;;;4897067;29;20061;-67
2022/04/10 10:48:37;;;;;;;5.38;2.85;;;;;;;;;;4896875;29;20057;-67
2022/04/10 10:51:10;;;;;;;4.80;2.42;;;;;;;;;;4896825;29;20060;-67
2022/04/10 10:54:00;;;;;;;5.18;2.55;;;;;;;;;;4904008;29;20390;-68
2022/04/10 10:56:33;;;;;;;5.78;2.28;;;;;;;;;;4878182;29;20069;-68
2022/04/10 10:59:26;;;;;;;5.13;2.80;;;;;;;;;;4878080;29;20057;-67
2022/04/10 11:02:02;;;;;;;5.28;2.08;;;;;;;;;;4902012;29;20064;-67
2022/04/10 11:04:35;;;;;;;4.28;2.15;;;;;;;;;;4915457;29;20059;-68
2022/04/10 11:07:27;;;;;;;9.18;4.55;;;;;;;;;;4914918;29;20540;-70
2022/04/10 11:10:00;;;;;;;5.22;2.38;;;;;;;;;;4887952;29;20063;-67
2022/04/10 11:12:54;;;;;;;7.10;3.33;;;;;;;;;;4877395;29;20071;-69
2022/04/10 11:15:29;;;;;;;5.47;2.78;;;;;;;;;;4915329;29;20060;-67
2022/04/10 11:18:24;;;;;;;6.10;3.13;;;;;;;;;;4914997;29;20064;-67
2022/04/10 11:21:11;;;;;;;5.05;2.50;;;;;;;;;;4895843;29;20076;-67
2022/04/10 11:23:54;;;;;;;4.80;2.55;;;;;;;;;;4876948;29;20104;-67
2022/04/10 11:26:34;;;;;;;4.75;2.55;;;;;;;;;;4877348;29;20104;-67
2022/04/10 11:29:06;;;;;;;4.45;2.65;;;;;;;;;;4873595;29;20053;-67
2022/04/10 11:31:46;;;;;;;4.40;2.50;;;;;;;;;;4858163;29;20053;-68
2022/04/10 11:34:24;;;;;;;4.30;2.45;;;;;;;;;;4873494;29;20065;-70
2022/04/10 11:36:57;;;;;;;7.13;2.50;;;;;;;;;;4858344;29;20073;-67
2022/04/10 11:39:34;;;;;;;5.30;2.40;;;;;;;;;;4884399;29;20060;-68
2022/04/10 11:42:08;;;;;;;5.57;2.63;;;;;;;;;;4895743;29;20056;-68
2022/04/10 11:44:40;;;;;;;8.43;2.92;;;;;;;;;;4885234;29;20052;-67
2022/04/10 11:47:11;;;;;;;7.53;2.83;;;;;;;;;;4876525;29;20049;-67
2022/04/10 11:49:51;;;;;;;6.43;2.88;;;;;;;;;;4809224;29;20054;-68
2022/04/10 11:52:22;;;;;;;7.10;2.80;;;;;;;;;;4824573;29;20058;-68
2022/04/10 11:54:52;;;;;;;5.60;2.80;;;;;;;;;;4840100;29;20121;-68
2022/04/10 11:57:25;;;;;;;6.20;2.75;;;;;;;;;;4839646;29;20064;-67
2022/04/10 11:59:55;;;;;;;6.88;3.05;;;;;;;;;;4821703;29;20058;-68
2022/04/10 12:02:26;;;;;;;9.70;4.70;;;;;;;;;;4872364;29;20076;-67
2022/04/10 12:05:01;;;;;;;12.15;4.75;;;;;;;;;;4876407;29;20057;-67
2022/04/10 12:07:31;;;;;;;7.72;3.80;;;;;;;;;;4876358;29;20045;-67
2022/04/10 12:10:01;;;;;;;8.02;3.83;;;;;;;;;;4861807;29;20061;-67
2022/04/10 12:12:37;;;;;;;7.40;3.53;;;;;;;;;;4876484;29;20124;-67
2022/04/10 12:15:20;;;;;;;8.27;3.38;;;;;;;;;;4876654;29;20065;-67
2022/04/10 12:18:06;;;;;;;7.25;3.53;;;;;;;;;;4862025;29;20077;-69
2022/04/10 12:20:43;;;;;;;10.13;5.43;;;;;;;;;;4820864;29;20054;-67
2022/04/10 12:23:25;;;;;;;8.07;3.83;;;;;;;;;;4802790;29;20059;-68
2022/04/10 12:25:58;;;;;;;9.45;5.32;;;;;;;;;;4767392;30;20058;-67
2022/04/10 12:28:30;;;;;;;9.35;4.30;;;;;;;;;;4807898;29;20806;-68
2022/04/10 12:31:02;;;;;;;7.78;3.95;;;;;;;;;;4821024;29;20540;-68
2022/04/10 12:33:34;;;;;;;6.28;3.55;;;;;;;;;;4821307;29;20062;-68
2022/04/10 12:36:19;;;;;;;6.38;3.83;;;;;;;;;;4805683;29;20062;-67
2022/04/10 12:38:54;;;;;;;8.60;5.18;;;;;;;;;;4805170;29;20054;-70
2022/04/10 12:41:32;;;;;;;9.23;4.60;;;;;;;;;;4821406;29;20054;-67
2022/04/10 12:44:06;;;;;;;;;;;;;;;;;;4858208;29;20060;-67
2022/04/10 12:46:39;;;;;;;9.02;5.57;;;;;;;;;;4875832;29;19931;-68
2022/04/10 12:49:16;;;;;;;9.30;4.95;;;;;;;;;;4874153;29;20053;-67
2022/04/10 12:51:53;;;;;;;9.38;5.50;;;;;;;;;;4872743;29;20057;-69
2022/04/10 12:54:47;;;;;;;9.15;4.97;;;;;;;;;;4856832;29;20054;-67
2022/04/10 12:57:29;;;;;;;11.48;5.15;;;;;;;;;;4859161;29;20065;-67
2022/04/10 13:00:01;;;;;;;11.25;6.03;;;;;;;;;;4883526;29;20082;-67
2022/04/10 13:02:38;;;;;;;14.88;8.38;;;;;;;;;;4912956;29;20048;-67
2022/04/10 13:05:17;;;;;;;22.30;13.20;;;;;;;;;;4913412;29;20060;-67
2022/04/10 13:08:00;;;;;;;26.50;12.60;;;;;;;;;;4913309;29;20060;-68
2022/04/10 13:10:31;;;;;;;30.00;15.38;;;;;;;;;;4913287;29;20052;-66
2022/04/10 13:13:08;;;;;;;33.45;15.77;;;;;;;;;;4931694;29;20158;-67
2022/04/10 13:15:39;;;;;;;29.27;13.55;;;;;;;;;;4948287;28;20062;-68
2022/04/10 13:18:10;;;;;;;30.38;13.70;;;;;;;;;;4970557;28;20434;-68
2022/04/10 13:20:41;;;;;;;22.17;10.75;;;;;;;;;;4970568;28;20070;-67
2022/04/10 13:23:11;;;;;;;24.23;10.38;;;;;;;;;;4949061;28;20047;-68
2022/04/10 13:25:48;;;;;;;20.85;10.40;;;;;;;;;;4897853;29;20047;-67
2022/04/10 13:28:19;;;;;;;22.35;10.05;;;;;;;;;;4912836;29;20412;-67
2022/04/10 13:30:50;;;;;;;31.05;15.32;;;;;;;;;;4913078;29;20056;-68
2022/04/10 13:33:22;;;;;;;24.40;11.15;;;;;;;;;;4916060;29;20059;-67
2022/04/10 13:35:52;;;;;;;28.20;12.85;;;;;;;;;;4875203;29;20068;-68
2022/04/10 13:38:23;;;;;;;22.52;11.07;;;;;;;;;;4875467;29;20065;-67
2022/04/10 13:40:53;;;;;;;31.58;14.63;;;;;;;;;;4904018;29;20059;-66
2022/04/10 13:43:25;;;;;;;22.55;10.52;;;;;;;;;;4912217;29;20060;-66
2022/04/10 13:45:57;;;;;;;26.50;12.10;;;;;;;;;;4912513;29;20056;-67
2022/04/10 13:48:27;;;;;;;24.40;12.38;;;;;;;;;;4912643;29;20524;-67
2022/04/10 13:50:59;;;;;;;22.80;11.38;;;;;;;;;;4916190;29;20056;-67
2022/04/10 13:53:30;;;;;;;20.00;10.23;;;;;;;;;;4911998;29;20051;-69
2022/04/10 13:56:00;;;;;;;23.13;10.98;;;;;;;;;;4912423;29;20056;-67
2022/04/10 13:58:31;;;;;;;22.52;10.50;;;;;;;;;;4896603;29;20059;-67
2022/04/10 14:01:03;;;;;;;18.92;9.27;;;;;;;;;;4892615;29;20044;-67
2022/04/10 14:03:34;;;;;;;16.63;6.57;;;;;;;;;;4896860;29;20433;-67
2022/04/10 14:06:04;;;;;;;9.90;4.43;;;;;;;;;;4897653;29;20064;-67
2022/04/10 14:08:35;;;;;;;8.85;4.40;;;;;;;;;;4881600;29;20048;-67
2022/04/10 14:11:21;;;;;;;8.75;3.50;;;;;;;;;;4897301;29;20061;-67
2022/04/10 14:13:51;;;;;;;4.32;2.53;;;;;;;;;;4921336;29;20059;-66
2022/04/10 14:16:22;;;;;;;7.28;2.60;;;;;;;;;;4935095;29;20435;-66
2022/04/10 14:19:00;;;;;;;5.40;2.85;;;;;;;;;;4943888;29;20136;-66
2022/04/10 14:21:32;;;;;;;4.82;2.80;;;;;;;;;;4954061;29;20054;-69
2022/04/10 14:24:03;;;;;;;9.27;4.50;;;;;;;;;;4967250;28;20414;-66
2022/04/10 14:26:34;;;;;;;6.07;3.20;;;;;;;;;;4973111;28;20070;-67
2022/04/10 14:29:05;;;;;;;7.90;4.20;;;;;;;;;;4973353;28;20053;-68
2022/04/10 14:31:37;;;;;;;6.57;3.88;;;;;;;;;;4987011;28;20055;-66
2022/04/10 14:34:07;;;;;;;7.57;3.72;;;;;;;;;;4993029;28;20047;-66
2022/04/10 14:36:38;;;;;;;6.28;2.40;;;;;;;;;;4973294;28;20077;-66
2022/04/10 14:39:09;;;;;;;7.10;4.32;;;;;;;;;;4958118;28;20438;-66
2022/04/10 14:41:39;;;;;;;8.38;3.20;;;;;;;;;;5012520;28;20498;-66
2022/04/10 14:44:10;;;;;;;6.38;2.78;;;;;;;;;;4953874;29;20581;-66
2022/04/10 14:46:41;;;;;;;7.85;4.05;;;;;;;;;;4954243;29;20079;-66
2022/04/10 14:49:12;;;;;;;5.70;3.17;;;;;;;;;;4953921;29;20507;-66
2022/04/10 14:51:43;;;;;;;7.75;5.40;;;;;;;;;;4953849;29;20062;-66
2022/04/10 14:54:15;;;;;;;6.47;3.95;;;;;;;;;;4937531;29;20048;-67
2022/04/10 14:56:46;;;;;;;7.53;3.95;;;;;;;;;;4953891;29;20471;-66
2022/04/10 14:59:16;;;;;;;4.78;2.40;;;;;;;;;;4938135;29;20047;-66
2022/04/10 15:01:47;;;;;;;7.40;3.65;;;;;;;;;;4974341;28;20058;-66
2022/04/10 15:04:18;;;;;;;7.88;3.38;;;;;;;;;;4992345;28;20062;-68
2022/04/10 15:06:49;;;;;;;5.18;3.10;;;;;;;;;;4992329;28;20054;-66
2022/04/10 15:09:20;;;;;;;7.57;3.45;;;;;;;;;;4943789;28;20342;-66
2022/04/10 15:11:51;;;;;;;9.40;5.18;;;;;;;;;;4992137;28;20054;-66
2022/04/10 15:14:21;;;;;;;7.53;3.58;;;;;;;;;;5001440;28;20050;-67
2022/04/10 15:16:51;;;;;;;6.57;3.47;;;;;;;;;;5011867;28;20054;-66
2022/04/10 15:19:22;;;;;;;5.05;2.53;;;;;;;;;;5011307;28;20057;-66
2022/04/10 15:21:53;;;;;;;4.85;2.53;;;;;;;;;;5045615;28;20049;-68